Time;durP1;ratioP1;P1;durP2;ratioP2;P2;SDS_P1;SDS_P2;PMS_P1;PMS_P2;Temp;Humidity;BMP_temperature;BMP_pressure;BME280_temperature;BME280_humidity;BME280_pressure;Samples;Min_cycle;Max_cycle;Signal;HPM_P1;HPM_P2
2023/10/11 00:00:24;;;;;;;13.30;3.95;;;;;;;16.04;95.72;101198.03;1244493;23;20015;-90
2023/10/11 00:00:56;;;;;;;6.50;4.32;;;;;;;16.01;95.95;101193.13;1253513;23;20545;-90
2023/10/11 00:01:29;;;;;;;6.60;3.90;;;;;;;15.97;95.97;101193.88;1255510;23;20420;-90
2023/10/11 00:02:01;;;;;;;8.25;4.63;;;;;;;15.95;95.79;101193.31;1253817;23;20019;-90
2023/10/11 00:02:32;;;;;;;7.80;4.50;;;;;;;15.89;96.40;101189.72;1255090;23;20170;-90
2023/10/11 00:03:28;;;;;;;10.00;4.55;;;;;;;15.95;95.81;101193.31;1244770;23;20019;-92
2023/10/11 00:04:03;;;;;;;12.40;4.50;;;;;;;15.94;95.98;101191.69;1250891;23;20097;-91
2023/10/11 00:04:35;;;;;;;6.35;4.50;;;;;;;15.88;96.38;101195.31;1250309;23;20082;-90
2023/10/11 00:05:07;;;;;;;7.32;4.13;;;;;;;15.88;96.70;101195.31;1262972;23;20582;-90
2023/10/11 00:05:42;;;;;;;6.70;4.85;;;;;;;15.93;96.20;101200.78;1261393;23;20018;-89
2023/10/11 00:06:15;;;;;;;6.03;4.13;;;;;;;15.83;97.20;101187.97;1255500;23;20022;-90
2023/10/11 00:06:49;;;;;;;8.50;4.38;;;;;;;15.91;96.64;101192.16;1249740;23;20343;-90
2023/10/11 00:07:21;;;;;;;7.00;4.43;;;;;;;15.81;97.32;101202.72;1247793;23;20605;-90
2023/10/11 00:07:57;;;;;;;9.40;4.43;;;;;;;15.87;96.69;101202.56;1248410;23;20016;-90
2023/10/11 00:08:39;;;;;;;10.82;4.60;;;;;;;15.87;96.22;101197.19;1243843;23;20019;-90
2023/10/11 00:09:16;;;;;;;6.22;3.75;;;;;;;15.89;96.45;101200.47;1246873;23;20276;-90
2023/10/11 00:09:51;;;;;;;8.77;4.70;;;;;;;15.81;97.23;101205.41;1243162;23;20020;-90
2023/10/11 00:10:23;;;;;;;8.27;4.25;;;;;;;15.76;97.84;101198.88;1242912;23;20031;-90
2023/10/11 00:10:59;;;;;;;11.20;4.90;;;;;;;15.81;97.31;101197.34;1241770;23;20113;-90
2023/10/11 00:11:33;;;;;;;10.25;4.80;;;;;;;15.86;97.00;101210.84;1242754;23;20024;-90
2023/10/11 00:12:05;;;;;;;11.73;5.60;;;;;;;15.74;97.54;101208.25;1247388;23;20022;-90
2023/10/11 00:12:41;;;;;;;9.40;3.85;;;;;;;15.66;98.55;101200.59;1244509;23;20210;-88
2023/10/11 00:13:16;;;;;;;12.35;4.38;;;;;;;15.64;99.18;101211.56;1248731;23;20039;-90
2023/10/11 00:13:48;;;;;;;10.80;4.43;;;;;;;15.59;99.11;101214.13;1246998;23;20020;-90
2023/10/11 00:14:20;;;;;;;10.80;4.80;;;;;;;15.59;99.75;101211.47;1245887;23;20376;-90
2023/10/11 00:14:51;;;;;;;9.95;4.38;;;;;;;15.58;100.00;101214.34;1247800;23;20020;-89
2023/10/11 00:15:26;;;;;;;5.97;4.18;;;;;;;15.59;100.00;101206.09;1245202;23;20026;-90
2023/10/11 00:15:59;;;;;;;8.48;4.47;;;;;;;15.59;100.00;101210.63;1250643;23;20014;-91
2023/10/11 00:16:35;;;;;;;7.30;5.10;;;;;;;15.70;99.70;101207.91;1256515;23;20106;-91
2023/10/11 00:17:08;;;;;;;5.25;4.35;;;;;;;15.73;98.81;101202.06;1263694;23;20153;-90
2023/10/11 00:17:41;;;;;;;8.23;4.97;;;;;;;15.76;98.31;101206.13;1262159;23;20026;-92
2023/10/11 00:18:13;;;;;;;7.05;4.05;;;;;;;15.80;97.90;101206.47;1255681;23;20344;-91
2023/10/11 00:18:44;;;;;;;8.50;4.30;;;;;;;15.75;98.33;101205.31;1247246;23;20167;-91
2023/10/11 00:19:16;;;;;;;11.32;5.10;;;;;;;15.85;97.33;101199.31;1246966;23;20384;-91
2023/10/11 00:19:50;;;;;;;9.80;4.60;;;;;;;15.77;97.79;101203.19;1256583;23;20289;-91
2023/10/11 00:21:15;;;;;;;5.25;4.22;;;;;;;15.86;96.59;101206.31;1254518;23;20166;-89
2023/10/11 00:21:49;;;;;;;8.02;4.35;;;;;;;15.84;96.68;101199.53;1243536;23;20106;-91
2023/10/11 00:22:24;;;;;;;5.13;3.65;;;;;;;15.82;96.86;101205.16;1244799;23;20012;-92
2023/10/11 00:22:56;;;;;;;8.00;4.28;;;;;;;15.84;96.72;101197.66;1253279;23;20019;-90
2023/10/11 00:23:27;;;;;;;9.10;4.20;;;;;;;15.89;96.16;101194.28;1253466;23;20019;-91
2023/10/11 00:23:59;;;;;;;10.88;5.13;;;;;;;15.82;96.66;101198.97;1254126;23;20026;-90
2023/10/11 00:24:31;;;;;;;8.45;4.72;;;;;;;15.81;97.02;101197.34;1249390;23;20034;-90
2023/10/11 00:25:04;;;;;;;16.80;4.90;;;;;;;15.79;96.92;101199.47;1250412;23;20022;-91
2023/10/11 00:25:36;;;;;;;7.63;4.28;;;;;;;15.73;97.62;101199.38;1249325;23;20226;-90
2023/10/11 00:26:07;;;;;;;10.10;5.50;;;;;;;15.66;97.71;101196.03;1242961;23;20019;-90
2023/10/11 00:26:44;;;;;;;6.05;4.25;;;;;;;15.68;97.73;101207.34;1247727;23;20258;-90
2023/10/11 00:27:16;;;;;;;8.65;4.90;;;;;;;15.67;98.12;101196.84;1249876;23;20011;-90
2023/10/11 00:27:48;;;;;;;11.65;6.57;;;;;;;15.74;97.15;101198.31;1251523;23;20031;-90
2023/10/11 00:28:23;;;;;;;15.02;5.70;;;;;;;15.75;97.28;101194.56;1245788;23;20016;-91
2023/10/11 00:28:55;;;;;;;13.23;4.93;;;;;;;15.67;97.32;101197.66;1247399;23;20146;-90
2023/10/11 00:29:26;;;;;;;6.20;4.25;;;;;;;15.69;97.46;101194.72;1249972;23;20021;-90
2023/10/11 00:29:58;;;;;;;7.15;4.05;;;;;;;15.74;97.24;101187.56;1246710;23;20019;-92
2023/10/11 00:30:30;;;;;;;10.30;4.75;;;;;;;15.79;96.66;101194.09;1250144;23;20030;-90
2023/10/11 00:31:02;;;;;;;6.68;4.85;;;;;;;15.71;97.43;101192.63;1243010;23;20361;-90
2023/10/11 00:31:35;;;;;;;9.18;4.43;;;;;;;15.67;97.83;101191.47;1236081;23;20034;-90
2023/10/11 00:32:09;;;;;;;11.82;4.78;;;;;;;15.59;98.36;101198.03;1238885;23;20020;-90
2023/10/11 00:32:41;;;;;;;9.60;4.65;;;;;;;15.53;98.87;101196.28;1247540;23;20020;-90
2023/10/11 00:33:13;;;;;;;6.95;4.80;;;;;;;15.50;98.95;101191.41;1249984;23;20019;-90
2023/10/11 00:34:10;;;;;;;7.40;4.10;;;;;;;15.63;98.52;101196.53;1254770;23;20023;-90
2023/10/11 00:34:42;;;;;;;12.02;4.78;;;;;;;15.66;98.22;101193.34;1245541;23;20523;-90
2023/10/11 00:35:20;;;;;;;5.70;3.95;;;;;;;15.72;97.75;101194.25;1242684;23;20164;-90
2023/10/11 00:35:52;;;;;;;8.20;4.55;;;;;;;15.69;97.31;101184.81;1254518;23;20015;-90
2023/10/11 00:36:29;;;;;;;7.53;4.53;;;;;;;15.72;96.65;101184.31;1249391;23;20468;-91
2023/10/11 00:37:01;;;;;;;9.10;4.03;;;;;;;15.76;96.60;101190.00;1250186;23;20019;-92
2023/10/11 00:37:32;;;;;;;10.88;4.60;;;;;;;15.72;97.05;101194.25;1250855;23;20046;-93
2023/10/11 00:38:04;;;;;;;6.05;5.40;;;;;;;15.72;96.81;101195.06;1257688;23;20023;-89
2023/10/11 00:38:47;;;;;;;7.43;4.18;;;;;;;15.72;96.48;101188.88;1248424;23;20101;-89
2023/10/11 00:39:19;;;;;;;9.35;4.85;;;;;;;15.69;97.33;101189.38;1244017;23;20020;-90
2023/10/11 00:39:53;;;;;;;8.80;4.05;;;;;;;15.70;97.12;101194.50;1256149;23;20018;-90
2023/10/11 00:40:27;;;;;;;9.70;5.13;;;;;;;15.67;97.23;101192.28;1265206;23;20010;-88
2023/10/11 00:41:18;;;;;;;6.50;4.28;;;;;;;15.69;97.04;101192.88;1249546;23;20170;-90
2023/10/11 00:41:51;;;;;;;9.10;5.35;;;;;;;15.61;97.88;101193.25;1255753;23;20098;-90
2023/10/11 00:42:25;;;;;;;6.80;4.57;;;;;;;15.59;97.96;101200.72;1258475;23;20014;-91
2023/10/11 00:42:57;;;;;;;6.75;5.13;;;;;;;15.65;97.62;101191.72;1238919;24;20023;-90
2023/10/11 00:43:33;;;;;;;7.68;4.40;;;;;;;15.60;98.15;101191.59;1244245;23;20020;-89
2023/10/11 00:44:05;;;;;;;8.35;4.47;;;;;;;15.52;98.75;101189.28;1251432;23;20026;-89
2023/10/11 00:44:38;;;;;;;7.22;4.70;;;;;;;15.52;98.69;101191.97;1246723;23;20030;-91
2023/10/11 00:45:10;;;;;;;8.88;5.75;;;;;;;15.53;98.18;101198.97;1246918;23;20016;-90
2023/10/11 00:45:43;;;;;;;9.65;3.78;;;;;;;15.57;98.10;101189.38;1243798;23;20022;-91
2023/10/11 00:46:18;;;;;;;12.05;4.60;;;;;;;15.46;98.67;101184.88;1244784;23;20012;-90
2023/10/11 00:46:57;;;;;;;8.70;4.35;;;;;;;15.48;98.92;101187.31;1248459;23;20105;-90
2023/10/11 00:47:28;;;;;;;8.57;5.30;;;;;;;15.53;98.42;101190.09;1257803;23;20023;-90
2023/10/11 00:48:06;;;;;;;9.43;5.60;;;;;;;15.66;97.31;101187.97;1248883;23;20026;-90
2023/10/11 00:48:51;;;;;;;13.02;5.45;;;;;;;15.72;96.92;101186.19;1250794;23;20034;-90
2023/10/11 00:49:34;;;;;;;8.52;4.20;;;;;;;15.68;96.33;101183.19;1257141;23;20022;-90
2023/10/11 00:50:14;;;;;;;12.55;5.70;;;;;;;15.63;97.48;101191.16;1250918;23;20084;-89
2023/10/11 00:50:49;;;;;;;12.55;4.57;;;;;;;15.65;97.08;101190.91;1251155;23;20459;-91
2023/10/11 00:51:26;;;;;;;7.15;4.55;;;;;;;15.59;97.20;101195.34;1246255;23;20061;-90
2023/10/11 00:51:57;;;;;;;9.93;4.78;;;;;;;15.63;96.79;101183.09;1237284;24;20020;-91
2023/10/11 00:52:30;;;;;;;9.85;5.13;;;;;;;15.61;97.14;101193.25;1236663;24;20031;-90
2023/10/11 00:53:01;;;;;;;13.18;5.03;;;;;;;15.66;96.87;101189.84;1243351;23;20018;-90
2023/10/11 00:53:34;;;;;;;8.77;4.38;;;;;;;15.66;96.86;101184.47;1255599;23;20031;-89
2023/10/11 00:54:06;;;;;;;7.07;4.15;;;;;;;15.62;97.32;101194.06;1243693;23;20035;-92
2023/10/11 00:54:42;;;;;;;9.00;4.35;;;;;;;15.66;96.82;101184.47;1251012;23;20019;-89
2023/10/11 00:55:23;;;;;;;7.80;4.47;;;;;;;15.67;96.37;101181.56;1249509;23;20026;-90
2023/10/11 00:55:55;;;;;;;;;;;;;;;15.71;96.05;101185.38;1255725;23;20021;-91
2023/10/11 00:56:31;;;;;;;8.43;4.00;;;;;;;15.66;96.46;101184.47;1261357;23;19918;-91
2023/10/11 00:57:05;;;;;;;13.98;4.47;;;;;;;15.76;95.57;101179.28;1254892;23;20019;-91
2023/10/11 00:57:37;;;;;;;9.45;4.57;;;;;;;15.70;96.30;101175.69;1257645;23;20030;-89
2023/10/11 00:58:09;;;;;;;10.45;5.35;;;;;;;15.63;96.67;101177.72;1241177;23;20019;-90
2023/10/11 00:58:41;;;;;;;6.85;5.00;;;;;;;15.67;96.02;101181.56;1240482;23;20080;-91
2023/10/11 00:59:15;;;;;;;6.80;4.57;;;;;;;15.66;95.97;101179.91;1243075;23;20027;-91
2023/10/11 00:59:48;;;;;;;7.70;4.97;;;;;;;15.68;95.52;101174.31;1237193;24;20635;-91
2023/10/11 01:00:24;;;;;;;11.13;4.40;;;;;;;15.67;95.47;101176.19;1237922;24;20260;-90
2023/10/11 01:00:56;;;;;;;14.90;4.22;;;;;;;15.66;96.00;101179.91;1237605;23;20298;-90
2023/10/11 01:01:27;;;;;;;11.80;4.78;;;;;;;15.69;96.24;101173.25;1248019;23;20020;-89
2023/10/11 01:01:59;;;;;;;8.82;4.32;;;;;;;15.62;96.41;101176.09;1252004;23;20015;-89
2023/10/11 01:02:33;;;;;;;8.55;5.07;;;;;;;15.61;96.85;101177.16;1248323;23;20023;-88
2023/10/11 01:03:07;;;;;;;12.95;5.25;;;;;;;15.66;96.17;101179.09;1249083;23;20019;-90
2023/10/11 01:03:41;;;;;;;9.75;5.22;;;;;;;15.63;96.69;101177.72;1256344;23;20049;-90
2023/10/11 01:04:16;;;;;;;11.25;4.63;;;;;;;15.67;96.29;101181.56;1254713;23;20119;-91
2023/10/11 01:04:49;;;;;;;13.85;4.72;;;;;;;15.66;96.11;101176.41;1244437;23;20028;-91
2023/10/11 01:05:22;;;;;;;6.28;3.90;;;;;;;15.68;95.68;101175.13;1250275;23;20021;-90
2023/10/11 01:05:55;;;;;;;9.55;3.85;;;;;;;15.61;96.65;101179.84;1246640;23;20015;-89
2023/10/11 01:06:28;;;;;;;11.27;5.45;;;;;;;15.67;95.82;101181.56;1250823;23;20015;-90
2023/10/11 01:07:01;;;;;;;7.20;4.22;;;;;;;15.62;96.15;101178.78;1254229;23;20018;-89
2023/10/11 01:07:33;;;;;;;8.95;4.90;;;;;;;15.63;96.16;101183.09;1251963;23;20107;-90
2023/10/11 01:08:06;;;;;;;12.18;5.00;;;;;;;15.65;96.21;101178.28;1250253;23;20011;-89
2023/10/11 01:08:39;;;;;;;14.27;4.90;;;;;;;15.64;96.15;101184.72;1241230;23;20386;-90
2023/10/11 01:09:17;;;;;;;10.90;5.05;;;;;;;15.74;95.27;101182.19;1245520;23;20020;-90
2023/10/11 01:09:51;;;;;;;7.57;4.90;;;;;;;15.64;95.70;101176.66;1253525;23;20015;-90
2023/10/11 01:10:23;;;;;;;11.73;4.70;;;;;;;15.62;96.13;101183.34;1255554;23;20367;-90
2023/10/11 01:10:55;;;;;;;8.27;4.95;;;;;;;15.55;97.36;101183.44;1252914;23;20246;-90
2023/10/11 01:11:28;;;;;;;7.18;4.60;;;;;;;15.49;97.14;101178.22;1252450;23;20023;-90
2023/10/11 01:11:59;;;;;;;10.00;5.03;;;;;;;15.58;96.67;101176.75;1236703;23;20031;-91
2023/10/11 01:12:32;;;;;;;13.32;4.47;;;;;;;15.61;95.78;101177.16;1247543;23;20086;-90
2023/10/11 01:13:04;;;;;;;9.10;4.53;;;;;;;15.66;95.42;101174.56;1246666;23;20508;-90
2023/10/11 01:13:40;;;;;;;7.00;4.70;;;;;;;15.71;94.91;101181.88;1252397;23;20023;-89
2023/10/11 01:14:11;;;;;;;7.63;5.72;;;;;;;15.74;94.81;101176.03;1255049;23;20015;-93
2023/10/11 01:14:58;;;;;;;10.45;4.43;;;;;;;15.73;94.31;101169.84;1245549;23;20015;-90
2023/10/11 01:15:30;;;;;;;7.35;4.57;;;;;;;15.61;95.97;101168.25;1255623;23;20319;-90
2023/10/11 01:16:05;;;;;;;6.85;4.18;;;;;;;15.65;95.08;101170.22;1261983;23;20041;-91
2023/10/11 01:16:37;;;;;;;8.85;4.75;;;;;;;15.69;95.08;101178.63;1253024;23;20023;-90
2023/10/11 01:17:09;;;;;;;7.60;5.47;;;;;;;15.72;94.52;101168.19;1261943;23;20805;-92
2023/10/11 01:17:41;;;;;;;10.90;5.18;;;;;;;15.67;94.46;101165.44;1249712;23;20019;-91
2023/10/11 01:18:13;;;;;;;10.90;5.10;;;;;;;15.62;95.49;101172.59;1248718;23;20159;-92
2023/10/11 01:18:44;;;;;;;14.38;4.70;;;;;;;15.68;95.07;101177.81;1247364;23;20086;-91
2023/10/11 01:19:17;;;;;;;7.22;4.38;;;;;;;15.74;94.67;101171.47;1248580;23;20019;-90
2023/10/11 01:19:51;;;;;;;10.68;5.40;;;;;;;15.73;94.76;101169.03;1249429;23;20022;-92
2023/10/11 01:20:23;;;;;;;9.68;4.85;;;;;;;15.72;94.18;101168.19;1239921;23;20027;-90
2023/10/11 01:20:55;;;;;;;8.77;4.60;;;;;;;15.73;94.23;101164.47;1247342;23;20019;-91
2023/10/11 01:21:32;;;;;;;10.50;4.85;;;;;;;15.75;94.30;101167.72;1246674;23;20429;-91
2023/10/11 01:22:04;;;;;;;11.27;4.93;;;;;;;15.73;94.30;101159.09;1255734;23;20077;-91
2023/10/11 01:22:36;;;;;;;14.30;7.78;;;;;;;15.70;94.77;101164.94;1253192;23;20146;-90
2023/10/11 01:23:07;;;;;;;9.52;4.85;;;;;;;15.70;94.67;101164.13;1247650;23;20023;-90
2023/10/11 01:23:39;;;;;;;8.32;4.43;;;;;;;15.69;94.57;101168.69;1242109;23;20497;-91
2023/10/11 01:24:11;;;;;;;7.18;5.00;;;;;;;15.69;94.45;101157.13;1242146;23;20059;-90
2023/10/11 01:24:44;;;;;;;11.52;4.80;;;;;;;15.74;93.91;101160.72;1255392;23;20023;-92
2023/10/11 01:25:18;;;;;;;10.60;4.95;;;;;;;15.72;94.39;101168.19;1258132;23;20022;-90
2023/10/11 01:25:50;;;;;;;6.53;4.45;;;;;;;15.66;94.83;101163.81;1248389;23;20019;-90
2023/10/11 01:26:22;;;;;;;12.40;4.43;;;;;;;15.63;95.31;101166.16;1243107;23;20016;-91
2023/10/11 01:26:56;;;;;;;6.07;4.40;;;;;;;15.55;96.05;101163.81;1250783;23;20038;-91
2023/10/11 01:27:30;;;;;;;6.82;4.93;;;;;;;15.54;95.88;101165.69;1250252;23;20391;-91
2023/10/11 01:28:02;;;;;;;5.63;4.65;;;;;;;15.61;95.86;101165.56;1258127;23;20019;-91
2023/10/11 01:28:35;;;;;;;8.27;4.47;;;;;;;15.61;95.32;101165.56;1252363;23;20316;-91
2023/10/11 01:29:06;;;;;;;8.73;5.18;;;;;;;15.63;95.26;101169.66;1259640;23;20086;-91
2023/10/11 01:29:38;;;;;;;7.20;4.13;;;;;;;15.68;94.55;101160.88;1241470;23;20032;-90
2023/10/11 01:30:10;;;;;;;11.68;5.25;;;;;;;15.61;95.12;101166.41;1246231;23;20023;-90
2023/10/11 01:30:42;;;;;;;10.27;4.38;;;;;;;15.60;94.79;101159.38;1242350;23;20023;-91
2023/10/11 01:31:16;;;;;;;16.27;4.53;;;;;;;15.62;95.18;101173.41;1245048;23;20126;-92
2023/10/11 01:31:48;;;;;;;7.88;4.75;;;;;;;15.72;93.81;101154.78;1243026;23;20024;-91
2023/10/11 01:32:20;;;;;;;9.98;5.68;;;;;;;15.71;93.81;101163.88;1248606;23;20019;-92
2023/10/11 01:32:54;;;;;;;10.38;4.55;;;;;;;15.73;93.84;101160.97;1247649;23;20030;-94
2023/10/11 01:33:27;;;;;;;10.07;4.65;;;;;;;15.74;93.71;101159.91;1249390;23;20065;-90
2023/10/11 01:33:59;;;;;;;8.40;4.57;;;;;;;15.67;94.07;101157.38;1250678;23;20689;-90
2023/10/11 01:34:32;;;;;;;13.18;4.47;;;;;;;15.67;94.76;101154.69;1249038;23;20126;-90
2023/10/11 01:35:13;;;;;;;8.57;4.68;;;;;;;15.63;94.64;101164.28;1252350;23;20015;-90
2023/10/11 01:35:48;;;;;;;14.70;3.78;;;;;;;15.67;94.61;101162.75;1256508;23;20026;-91
2023/10/11 01:36:21;;;;;;;11.73;4.55;;;;;;;15.63;95.33;101158.91;1252445;23;20498;-90
2023/10/11 01:36:55;;;;;;;5.97;4.18;;;;;;;15.59;94.87;101163.13;1248958;23;20038;-91
2023/10/11 01:37:28;;;;;;;9.80;4.65;;;;;;;15.62;94.70;101156.47;1244137;23;20027;-90
2023/10/11 01:38:01;;;;;;;10.82;4.05;;;;;;;15.66;94.12;101154.94;1250900;23;20031;-91
2023/10/11 01:38:47;;;;;;;8.48;5.20;;;;;;;15.62;94.71;101161.84;1247513;23;20023;-91
2023/10/11 01:39:21;;;;;;;6.10;5.03;;;;;;;15.63;94.58;101153.56;1246491;23;20446;-90
2023/10/11 01:39:53;;;;;;;7.78;3.92;;;;;;;15.62;94.31;101162.66;1249990;23;20023;-89
2023/10/11 01:40:24;;;;;;;7.20;4.47;;;;;;;15.68;94.00;101167.06;1246900;23;20455;-91
2023/10/11 01:40:56;;;;;;;8.00;4.15;;;;;;;15.67;93.73;101160.06;1249537;23;20085;-91
2023/10/11 01:41:28;;;;;;;8.07;4.38;;;;;;;15.67;94.25;101154.69;1252866;23;20026;-90
2023/10/11 01:41:59;;;;;;;11.70;5.22;;;;;;;15.63;94.64;101164.28;1258244;23;20086;-92
2023/10/11 01:42:33;;;;;;;10.18;4.80;;;;;;;15.69;93.72;101163.31;1248055;23;20470;-92
2023/10/11 01:43:05;;;;;;;7.45;4.57;;;;;;;15.70;94.09;101159.56;1260268;23;20474;-90
2023/10/11 01:43:37;;;;;;;8.45;4.57;;;;;;;15.69;93.45;101160.63;1261408;23;20329;-90
2023/10/11 01:44:09;;;;;;;8.10;4.68;;;;;;;15.73;93.83;101163.66;1253961;23;20448;-92
2023/10/11 01:44:40;;;;;;;10.82;4.85;;;;;;;15.69;93.69;101152.56;1249123;23;20102;-91
2023/10/11 01:45:12;;;;;;;9.98;5.78;;;;;;;15.68;94.08;101152.81;1250902;23;20090;-91
2023/10/11 01:45:44;;;;;;;9.60;3.97;;;;;;;15.76;93.56;101144.34;1248925;23;20151;-90
2023/10/11 01:46:18;;;;;;;11.88;4.68;;;;;;;15.62;93.72;101149.25;1248910;23;20027;-90
2023/10/11 01:46:49;;;;;;;10.85;4.55;;;;;;;15.62;94.57;101154.59;1256402;23;20035;-90
2023/10/11 01:47:21;;;;;;;8.70;4.63;;;;;;;15.62;94.54;101143.88;1255546;23;20066;-93
2023/10/11 01:47:56;;;;;;;10.20;4.97;;;;;;;15.68;93.58;101150.94;1242809;23;20020;-90
2023/10/11 01:48:28;;;;;;;6.65;4.25;;;;;;;15.71;93.50;101150.47;1243610;23;20019;-92
2023/10/11 01:49:01;;;;;;;6.57;4.63;;;;;;;15.78;92.90;101144.94;1245254;23;20042;-92
2023/10/11 01:49:39;;;;;;;8.32;4.38;;;;;;;15.80;92.57;101150.88;1251659;23;20027;-90
2023/10/11 01:50:10;;;;;;;5.97;4.80;;;;;;;15.74;92.51;101144.59;1255965;23;20266;-90
2023/10/11 01:50:42;;;;;;;11.05;4.28;;;;;;;15.68;93.70;101150.94;1262339;23;20029;-90
2023/10/11 01:51:21;;;;;;;8.55;4.80;;;;;;;15.67;93.87;101137.75;1257096;23;20022;-91
2023/10/11 01:51:54;;;;;;;6.55;4.82;;;;;;;15.64;94.83;101144.44;1251335;23;20023;-90
2023/10/11 01:52:26;;;;;;;6.57;4.32;;;;;;;15.65;94.36;101151.44;1248480;23;20538;-90
2023/10/11 01:52:59;;;;;;;7.70;4.78;;;;;;;15.65;94.43;101140.69;1250972;23;20016;-91
2023/10/11 01:53:31;;;;;;;10.38;4.55;;;;;;;15.75;93.21;101143.53;1254212;23;20321;-91
2023/10/11 01:54:04;;;;;;;8.05;3.90;;;;;;;15.71;93.84;101145.09;1256915;23;20015;-91
2023/10/11 01:54:35;;;;;;;7.72;4.90;;;;;;;15.69;93.35;101149.88;1254138;23;20505;-91
2023/10/11 01:55:10;;;;;;;7.43;4.68;;;;;;;15.69;93.66;101144.53;1261378;23;20014;-93
2023/10/11 01:55:42;;;;;;;8.75;4.70;;;;;;;15.66;93.42;101146.88;1261780;23;20516;-90
2023/10/11 01:56:14;;;;;;;7.15;4.05;;;;;;;15.62;94.31;101143.06;1253419;23;20015;-91
2023/10/11 01:56:45;;;;;;;9.00;4.47;;;;;;;15.68;94.64;101145.56;1248208;23;20026;-91
2023/10/11 01:57:17;;;;;;;9.52;4.47;;;;;;;15.65;93.99;101142.56;1253237;23;20026;-91
2023/10/11 01:57:50;;;;;;;8.68;4.47;;;;;;;15.66;93.92;101146.88;1254835;23;20078;-91
2023/10/11 01:58:21;;;;;;;10.48;4.30;;;;;;;15.69;93.41;101146.38;1256170;23;20173;-92
2023/10/11 01:58:56;;;;;;;7.18;4.82;;;;;;;15.72;92.50;101146.72;1255488;23;20023;-91
2023/10/11 01:59:28;;;;;;;9.40;4.55;;;;;;;15.66;93.21;101146.88;1249329;23;20034;-90
2023/10/11 02:00:03;;;;;;;9.65;4.97;;;;;;;15.65;94.05;101145.25;1255058;23;20071;-90
2023/10/11 02:00:43;;;;;;;7.53;4.72;;;;;;;15.64;93.77;101141.75;1248563;23;20605;-91
2023/10/11 02:01:23;;;;;;;8.60;4.95;;;;;;;15.59;94.83;101144.31;1242197;23;20499;-91
2023/10/11 02:02:02;;;;;;;7.93;5.18;;;;;;;15.69;93.45;101141.84;1240345;23;20354;-90
2023/10/11 02:02:35;;;;;;;7.43;4.70;;;;;;;15.63;93.96;101137.44;1240378;23;20034;-91
2023/10/11 02:03:13;;;;;;;7.82;5.13;;;;;;;15.66;93.60;101141.50;1238073;24;20471;-90
2023/10/11 02:03:46;;;;;;;8.15;4.53;;;;;;;15.67;93.46;101143.13;1248501;23;20071;-92
2023/10/11 02:04:20;;;;;;;8.77;4.45;;;;;;;15.64;93.78;101144.44;1248731;23;20495;-90
2023/10/11 02:04:57;;;;;;;7.68;4.90;;;;;;;15.60;94.19;101132.53;1254363;23;20027;-91
2023/10/11 02:05:31;;;;;;;6.32;4.40;;;;;;;15.62;93.89;101135.81;1254354;23;20018;-90
2023/10/11 02:06:04;;;;;;;9.45;5.18;;;;;;;15.62;94.03;101141.19;1246975;23;20024;-90
2023/10/11 02:06:38;;;;;;;8.88;4.20;;;;;;;15.65;93.98;101139.88;1256101;23;20030;-90
2023/10/11 02:07:10;;;;;;;10.85;4.25;;;;;;;15.67;93.32;101145.81;1255281;23;20025;-90
2023/10/11 02:07:41;;;;;;;10.68;4.43;;;;;;;15.63;93.54;101142.81;1242321;23;20031;-91
2023/10/11 02:08:17;;;;;;;10.80;4.72;;;;;;;15.65;93.56;101140.69;1248928;23;20015;-91
2023/10/11 02:08:48;;;;;;;13.70;5.28;;;;;;;15.63;93.44;101142.81;1245139;23;20027;-90
2023/10/11 02:09:21;;;;;;;11.85;4.97;;;;;;;15.64;93.86;101138.25;1252658;23;20126;-90
2023/10/11 02:09:55;;;;;;;12.38;5.80;;;;;;;15.65;93.57;101138.00;1255760;23;20054;-91
2023/10/11 02:10:27;;;;;;;10.35;5.22;;;;;;;15.71;92.59;101139.72;1249035;23;20015;-91
2023/10/11 02:11:01;;;;;;;13.63;5.03;;;;;;;15.74;91.82;101133.03;1249933;23;20027;-91
2023/10/11 02:11:33;;;;;;;10.68;4.97;;;;;;;15.68;92.40;101129.47;1249832;23;20027;-91
2023/10/11 02:12:10;;;;;;;12.80;5.00;;;;;;;15.65;93.15;101134.50;1251461;23;20015;-93
2023/10/11 02:12:46;;;;;;;12.30;4.07;;;;;;;15.70;92.84;101132.72;1249380;23;20086;-90
2023/10/11 02:13:18;;;;;;;11.13;4.43;;;;;;;15.64;93.01;101139.06;1254109;23;20023;-90
2023/10/11 02:13:50;;;;;;;7.25;4.28;;;;;;;15.63;94.02;101137.44;1253271;23;20341;-90
2023/10/11 02:14:22;;;;;;;7.65;5.32;;;;;;;15.66;93.27;101131.59;1248458;23;20030;-90
2023/10/11 02:14:55;;;;;;;5.95;3.90;;;;;;;15.71;92.34;101141.59;1248696;23;20483;-91
2023/10/11 02:15:29;;;;;;;11.48;4.03;;;;;;;15.70;92.64;101130.03;1240537;23;20020;-90
2023/10/11 02:16:01;;;;;;;6.78;4.30;;;;;;;15.64;93.33;101131.00;1239513;23;20114;-90
2023/10/11 02:16:33;;;;;;;6.53;4.18;;;;;;;15.70;92.55;101127.34;1247437;23;20028;-91
2023/10/11 02:17:05;;;;;;;12.75;5.25;;;;;;;15.69;92.69;101131.09;1249015;23;20015;-90
2023/10/11 02:17:39;;;;;;;9.60;4.47;;;;;;;15.69;92.20;101131.09;1250407;23;20019;-90
2023/10/11 02:18:11;;;;;;;4.32;3.33;;;;;;;15.72;92.10;101129.78;1253885;23;20294;-91
2023/10/11 02:18:43;;;;;;;5.95;4.45;;;;;;;15.71;91.74;101128.97;1255831;23;20022;-90
2023/10/11 02:19:18;;;;;;;6.72;5.28;;;;;;;15.68;92.42;101124.09;1244284;23;20023;-91
2023/10/11 02:19:53;;;;;;;6.22;4.65;;;;;;;15.72;92.63;101127.09;1254665;23;20042;-92
2023/10/11 02:20:25;;;;;;;6.07;4.65;;;;;;;15.68;92.24;101134.03;1257988;23;20533;-92
2023/10/11 02:20:56;;;;;;;11.13;4.80;;;;;;;15.71;92.05;101123.59;1258498;23;20110;-90
2023/10/11 02:21:36;;;;;;;8.43;4.93;;;;;;;15.72;91.90;101127.91;1246719;23;20261;-92
2023/10/11 02:22:11;;;;;;;11.32;4.65;;;;;;;15.71;92.11;101134.34;1246763;23;20031;-91
2023/10/11 02:22:44;;;;;;;10.65;4.63;;;;;;;15.69;91.70;101133.78;1253554;23;20015;-90
2023/10/11 02:23:17;;;;;;;6.30;4.05;;;;;;;15.65;93.06;101129.94;1252757;23;20022;-91
2023/10/11 02:23:49;;;;;;;6.43;4.43;;;;;;;15.73;92.17;101129.53;1252963;23;20019;-89
2023/10/11 02:24:20;;;;;;;11.60;4.53;;;;;;;15.72;92.25;101127.09;1244268;23;20020;-90
2023/10/11 02:24:52;;;;;;;10.68;4.63;;;;;;;15.68;91.73;101129.47;1243163;23;20035;-90
2023/10/11 02:25:27;;;;;;;8.48;4.35;;;;;;;15.67;92.40;101127.03;1237891;23;20020;-90
2023/10/11 02:25:58;;;;;;;11.32;4.95;;;;;;;15.70;92.10;101129.22;1240757;23;20012;-90
2023/10/11 02:26:34;;;;;;;14.18;4.45;;;;;;;15.63;92.42;101124.00;1259426;23;20014;-90
2023/10/11 02:27:17;;;;;;;7.05;4.00;;;;;;;15.60;93.03;101124.47;1257552;23;20022;-90
2023/10/11 02:27:49;;;;;;;8.68;4.68;;;;;;;15.63;92.50;101126.69;1254541;23;20487;-90
2023/10/11 02:28:21;;;;;;;9.73;4.95;;;;;;;15.63;93.01;101131.25;1235855;23;20056;-89
2023/10/11 02:28:53;;;;;;;8.98;4.50;;;;;;;15.66;92.97;101128.91;1236705;24;20024;-90
2023/10/11 02:29:25;;;;;;;10.20;5.15;;;;;;;15.55;93.63;101124.34;1240453;23;20023;-90
2023/10/11 02:29:57;;;;;;;7.00;4.07;;;;;;;15.46;94.37;101121.25;1246143;23;20015;-90
2023/10/11 02:30:34;;;;;;;8.75;4.28;;;;;;;15.52;94.31;101129.41;1251491;23;20616;-92
2023/10/11 02:31:07;;;;;;;6.90;5.03;;;;;;;15.58;92.94;101123.91;1247777;23;20023;-91
2023/10/11 02:31:38;;;;;;;6.80;4.18;;;;;;;15.63;93.04;101123.19;1245848;23;20024;-89
2023/10/11 02:32:11;;;;;;;8.32;3.90;;;;;;;15.63;92.56;101126.69;1251371;23;20039;-90
2023/10/11 02:32:42;;;;;;;14.05;6.65;;;;;;;15.64;92.69;101122.97;1258001;23;20011;-90
2023/10/11 02:33:16;;;;;;;9.93;4.35;;;;;;;15.71;91.85;101128.97;1258618;23;20023;-90
2023/10/11 02:33:51;;;;;;;6.85;4.43;;;;;;;15.64;92.04;101127.50;1255501;23;20018;-92
2023/10/11 02:34:23;;;;;;;6.10;4.50;;;;;;;15.62;92.04;101125.06;1245788;23;20027;-91
2023/10/11 02:34:56;;;;;;;9.18;4.95;;;;;;;15.57;93.05;101124.13;1257353;23;20037;-90
2023/10/11 02:35:27;;;;;;;10.95;4.63;;;;;;;15.57;93.36;101127.63;1256407;23;20015;-90
2023/10/11 02:36:08;;;;;;;11.55;5.25;;;;;;;15.54;93.29;101133.47;1254769;23;20015;-90
2023/10/11 02:36:43;;;;;;;10.55;4.55;;;;;;;15.57;93.25;101126.78;1254132;23;20029;-89
2023/10/11 02:37:16;;;;;;;6.47;4.35;;;;;;;15.52;93.37;101122.16;1251393;23;20015;-91